Time;durP1;ratioP1;P1;durP2;ratioP2;P2;SDS_P1;SDS_P2;PMS_P1;PMS_P2;Temp;Humidity;BMP_temperature;BMP_pressure;BME280_temperature;BME280_humidity;BME280_pressure;Samples;Min_cycle;Max_cycle;Signal;HPM_P1;HPM_P2
2022/09/06 00:00:40;;;;;;;1.65;1.32;;;;;;;9.64;59.88;100349.98;1669774;85;21064;-81
2022/09/06 00:03:07;;;;;;;1.20;1.10;;;;;;;9.56;60.09;100347.94;1669755;85;21566;-81
2022/09/06 00:05:33;;;;;;;1.40;1.20;;;;;;;9.47;60.29;100355.08;1669722;85;21067;-81
2022/09/06 00:08:01;;;;;;;2.55;1.55;;;;;;;9.42;60.29;100360.00;1669729;85;21131;-81
2022/09/06 00:10:28;;;;;;;1.40;1.30;;;;;;;9.35;60.33;100355.75;1669815;85;21164;-82
2022/09/06 00:13:02;;;;;;;5.50;1.17;;;;;;;9.26;60.41;100357.62;1669973;85;22066;-80
2022/09/06 00:15:30;;;;;;;2.45;1.35;;;;;;;9.16;60.77;100349.44;1669736;85;21798;-80
2022/09/06 00:17:58;;;;;;;1.22;1.12;;;;;;;9.07;61.03;100353.53;1669910;85;21095;-81
2022/09/06 00:20:26;;;;;;;5.25;1.67;;;;;;;9.00;61.14;100349.27;1669713;85;21024;-81
2022/09/06 00:23:03;;;;;;;1.30;1.05;;;;;;;8.93;61.34;100348.04;1670176;85;21056;-81
2022/09/06 00:25:30;;;;;;;1.52;1.30;;;;;;;8.87;61.29;100354.68;1669788;85;21368;-82
2022/09/06 00:27:59;;;;;;;1.30;1.20;;;;;;;8.81;61.58;100352.16;1670042;85;21172;-81
2022/09/06 00:30:26;;;;;;;1.52;1.40;;;;;;;8.77;61.64;100353.08;1669778;85;21136;-81
2022/09/06 00:32:53;;;;;;;1.55;1.12;;;;;;;8.69;61.73;100353.20;1669863;85;21146;-81
2022/09/06 00:35:20;;;;;;;2.58;1.02;;;;;;;8.60;62.03;100355.07;1669981;85;21124;-81
2022/09/06 00:37:47;;;;;;;2.00;1.15;;;;;;;8.53;62.43;100352.52;1669903;85;21064;-81
2022/09/06 00:40:14;;;;;;;1.57;1.47;;;;;;;8.47;62.92;100356.97;1670006;85;21122;-80
2022/09/06 00:42:41;;;;;;;1.40;1.30;;;;;;;8.42;63.10;100349.57;1669683;85;21124;-81
2022/09/06 00:45:09;;;;;;;1.60;1.50;;;;;;;8.35;63.11;100356.22;1670010;85;21079;-81
2022/09/06 00:47:35;;;;;;;1.80;1.45;;;;;;;8.30;63.26;100351.90;1669873;85;21681;-81
2022/09/06 00:50:02;;;;;;;1.82;1.12;;;;;;;8.23;63.20;100353.72;1669934;85;21057;-81
2022/09/06 00:52:29;;;;;;;1.42;1.32;;;;;;;8.17;63.53;100352.05;1670099;85;22250;-81
2022/09/06 00:54:55;;;;;;;3.37;1.40;;;;;;;8.13;63.65;100354.27;1669760;85;21527;-80
2022/09/06 00:57:25;;;;;;;4.85;1.22;;;;;;;8.08;63.65;100354.76;1669880;85;21103;-80
2022/09/06 00:59:50;;;;;;;3.55;1.12;;;;;;;8.01;63.91;100357.03;1669726;85;20998;-81
2022/09/06 01:02:18;;;;;;;2.58;1.30;;;;;;;7.94;63.72;100361.92;1654394;85;21124;-81
2022/09/06 01:04:45;;;;;;;2.45;1.17;;;;;;;7.87;64.45;100357.18;1669745;85;21387;-80
2022/09/06 01:07:25;;;;;;;1.30;1.20;;;;;;;7.80;64.57;100356.38;1678134;85;21049;-81
2022/09/06 01:10:15;;;;;;;1.40;1.15;;;;;;;7.78;64.60;100352.02;1680948;85;21124;-81
2022/09/06 01:13:21;;;;;;;1.85;1.32;;;;;;;7.72;64.73;100351.64;1679470;85;21077;-81
2022/09/06 01:16:18;;;;;;;1.45;1.25;;;;;;;7.65;64.97;100354.32;1680977;85;21741;-80
2022/09/06 01:19:02;;;;;;;1.50;1.40;;;;;;;7.56;65.12;100353.97;1680841;84;21203;-81
2022/09/06 01:22:02;;;;;;;8.78;1.30;;;;;;;7.49;65.19;100352.30;1680333;85;21006;-80
2022/09/06 01:24:40;;;;;;;1.77;1.32;;;;;;;7.41;65.60;100348.00;1680732;85;21061;-81
2022/09/06 01:27:43;;;;;;;3.20;1.20;;;;;;;7.35;65.53;100353.73;1681009;85;21136;-81
2022/09/06 01:30:11;;;;;;;3.30;1.00;;;;;;;7.30;65.48;100358.13;1680505;84;21040;-81
2022/09/06 01:32:55;;;;;;;2.92;1.42;;;;;;;7.21;65.89;100357.31;1681116;85;21167;-79
2022/09/06 01:35:42;;;;;;;1.60;1.50;;;;;;;7.18;66.68;100363.02;1680936;85;21641;-81
2022/09/06 01:38:08;;;;;;;1.72;1.52;;;;;;;7.16;66.25;100362.13;1680622;85;21068;-80
2022/09/06 01:40:35;;;;;;;2.55;1.25;;;;;;;7.10;66.33;100363.51;1680752;85;21061;-80
2022/09/06 01:43:05;;;;;;;2.62;1.12;;;;;;;7.04;66.21;100362.67;1681088;85;21127;-81
2022/09/06 01:46:18;;;;;;;3.98;1.50;;;;;;;6.99;66.33;100367.06;1680786;85;21162;-80
2022/09/06 01:48:50;;;;;;;1.47;1.37;;;;;;;6.96;66.50;100368.80;1638713;85;21092;-81
2022/09/06 01:51:31;;;;;;;1.60;1.50;;;;;;;6.88;66.51;100370.17;1680684;85;21045;-80
2022/09/06 01:54:09;;;;;;;2.27;1.60;;;;;;;6.82;66.81;100378.05;1680707;85;21040;-80
2022/09/06 01:56:51;;;;;;;1.32;1.22;;;;;;;6.77;66.52;100378.52;1681193;85;21157;-81
2022/09/06 01:59:46;;;;;;;3.72;1.42;;;;;;;6.73;66.70;100376.80;1618069;88;22252;-81
2022/09/06 02:02:33;;;;;;;1.40;1.15;;;;;;;6.67;67.06;100373.34;1720632;83;21127;-80
2022/09/06 02:05:07;;;;;;;2.22;1.40;;;;;;;6.63;66.84;100372.05;1693176;84;22098;-81
2022/09/06 02:07:34;;;;;;;1.62;1.52;;;;;;;6.58;67.53;100368.14;1680823;84;27388;-81
2022/09/06 02:10:12;;;;;;;1.82;1.67;;;;;;;6.56;67.99;100377.75;1653178;85;21044;-80
2022/09/06 02:12:41;;;;;;;1.37;1.30;;;;;;;6.51;68.36;100374.28;1680597;85;21139;-81
2022/09/06 02:15:21;;;;;;;1.80;1.60;;;;;;;6.48;68.19;100382.13;1680742;85;21524;-81
2022/09/06 02:17:54;;;;;;;1.30;1.20;;;;;;;6.44;68.33;100381.70;1681043;85;21540;-81
2022/09/06 02:20:27;;;;;;;1.60;1.50;;;;;;;6.39;68.20;100385.66;1680844;85;21104;-81
2022/09/06 02:22:56;;;;;;;1.40;1.30;;;;;;;6.36;68.28;100391.34;1681155;84;21021;-80
2022/09/06 02:25:27;;;;;;;1.55;1.35;;;;;;;6.35;68.27;100386.97;1680718;85;21937;-80
2022/09/06 02:27:54;;;;;;;1.37;1.27;;;;;;;6.31;68.19;100390.90;1681016;85;21033;-80
2022/09/06 02:30:21;;;;;;;1.72;1.60;;;;;;;6.28;67.80;100394.82;1680665;85;21084;-81
2022/09/06 02:32:52;;;;;;;8.73;1.60;;;;;;;6.22;67.54;100396.17;1680705;85;21087;-80
2022/09/06 02:35:18;;;;;;;4.17;1.60;;;;;;;6.18;67.88;100398.34;1680064;85;21625;-80
2022/09/06 02:37:45;;;;;;;7.92;1.67;;;;;;;6.16;68.35;100396.17;1680700;85;21221;-80
2022/09/06 02:40:12;;;;;;;4.50;1.90;;;;;;;6.12;68.62;100389.23;1680633;85;21124;-81
2022/09/06 02:42:40;;;;;;;2.62;1.85;;;;;;;6.09;69.26;100390.09;1680580;85;21134;-80
2022/09/06 02:45:08;;;;;;;2.45;1.62;;;;;;;6.06;69.54;100402.30;1680724;85;21021;-80
2022/09/06 02:47:34;;;;;;;2.20;2.10;;;;;;;6.02;69.47;100404.46;1681012;85;21079;-80
2022/09/06 02:50:01;;;;;;;2.12;1.87;;;;;;;5.99;69.50;100397.96;1680750;85;21120;-81
2022/09/06 02:52:27;;;;;;;1.95;1.60;;;;;;;5.94;69.38;100400.09;1680945;85;21021;-80
2022/09/06 02:54:54;;;;;;;2.65;2.02;;;;;;;5.90;69.51;100398.79;1680765;85;21070;-80
2022/09/06 02:57:20;;;;;;;2.50;2.30;;;;;;;5.86;69.60;100390.09;1680984;85;21083;-80
2022/09/06 02:59:46;;;;;;;2.83;2.37;;;;;;;5.88;69.43;100388.78;1680766;85;21543;-80
2022/09/06 03:02:15;;;;;;;5.87;3.20;;;;;;;5.86;69.22;100387.48;1680857;85;21327;-80
2022/09/06 03:04:41;;;;;;;6.10;3.10;;;;;;;5.82;69.41;100394.90;1680646;85;21061;-80
2022/09/06 03:07:08;;;;;;;4.37;3.75;;;;;;;5.80;69.61;100401.88;1680699;85;21159;-80
2022/09/06 03:09:34;;;;;;;5.58;4.28;;;;;;;5.78;69.86;100391.84;1681043;84;21489;-80
2022/09/06 03:12:01;;;;;;;7.87;4.28;;;;;;;5.74;70.07;100391.42;1680715;85;21136;-81
2022/09/06 03:14:28;;;;;;;8.20;4.40;;;;;;;5.72;70.33;100394.47;1680839;84;21537;-80
2022/09/06 03:16:54;;;;;;;5.80;3.90;;;;;;;5.68;70.11;100397.94;1680651;85;21088;-80
2022/09/06 03:19:21;;;;;;;6.20;4.80;;;;;;;5.65;70.02;100399.24;1680761;84;21131;-80
2022/09/06 03:21:48;;;;;;;8.43;5.03;;;;;;;5.64;69.53;100396.22;1680989;85;21100;-80
2022/09/06 03:24:14;;;;;;;9.05;5.80;;;;;;;5.59;70.24;100397.07;1680859;85;21065;-80
2022/09/06 03:26:41;;;;;;;14.25;7.20;;;;;;;5.59;71.66;100406.66;1680838;85;22211;-80
2022/09/06 03:29:07;;;;;;;10.23;6.70;;;;;;;5.62;72.30;100408.41;1680739;85;21627;-80
2022/09/06 03:31:33;;;;;;;8.00;6.03;;;;;;;5.65;72.63;100405.77;1681001;85;21111;-80
2022/09/06 03:34:00;;;;;;;10.32;5.85;;;;;;;5.69;72.51;100412.30;1680788;85;21091;-80
2022/09/06 03:36:27;;;;;;;7.53;5.53;;;;;;;5.75;73.03;100416.23;1680936;85;21183;-81
2022/09/06 03:38:53;;;;;;;12.50;5.28;;;;;;;5.78;72.40;100408.81;1680751;85;21126;-81
2022/09/06 03:41:20;;;;;;;7.37;5.30;;;;;;;5.82;72.03;100417.55;1680639;85;21405;-80
2022/09/06 03:43:46;;;;;;;9.30;5.05;;;;;;;5.84;71.89;100420.57;1680938;85;21151;-80
2022/09/06 03:46:13;;;;;;;6.17;5.12;;;;;;;5.86;71.95;100418.82;1680793;85;23236;-80
2022/09/06 03:48:39;;;;;;;9.00;5.78;;;;;;;5.87;71.68;100421.88;1680835;85;21084;-80
2022/09/06 03:51:06;;;;;;;7.25;5.50;;;;;;;5.89;71.65;100426.66;1680744;85;21225;-81
2022/09/06 03:53:32;;;;;;;5.67;5.08;;;;;;;5.90;71.70;100428.41;1680525;85;21109;-79
2022/09/06 03:55:59;;;;;;;6.67;5.00;;;;;;;5.89;71.60;100421.44;1680979;85;21136;-80
2022/09/06 03:58:30;;;;;;;10.50;5.60;;;;;;;5.93;71.59;100427.52;1680900;85;21131;-80
2022/09/06 04:01:10;;;;;;;9.35;5.67;;;;;;;5.94;71.47;100429.27;1681248;85;21087;-81
2022/09/06 04:03:37;;;;;;;7.65;4.92;;;;;;;5.97;71.67;100433.64;1680952;85;22073;-81
2022/09/06 04:06:04;;;;;;;9.33;5.55;;;;;;;6.03;71.66;100434.95;1680957;85;21553;-80
2022/09/06 04:08:32;;;;;;;10.95;5.30;;;;;;;6.07;72.01;100439.28;1676123;85;21885;-80
2022/09/06 04:10:59;;;;;;;12.80;5.50;;;;;;;6.10;72.23;100441.90;1675718;85;21101;-80
2022/09/06 04:13:27;;;;;;;14.43;5.30;;;;;;;6.17;72.77;100442.34;1675794;85;21033;-80
2022/09/06 04:15:54;;;;;;;7.80;5.30;;;;;;;6.25;73.65;100448.84;1675671;85;21137;-81
2022/09/06 04:18:22;;;;;;;12.55;4.87;;;;;;;6.28;74.42;100441.01;1676062;84;21032;-81
2022/09/06 04:20:49;;;;;;;9.93;5.25;;;;;;;6.33;75.13;100444.03;1675746;85;21088;-80
2022/09/06 04:23:16;;;;;;;13.65;5.25;;;;;;;6.38;75.51;100444.03;1675706;84;21061;-81
2022/09/06 04:25:48;;;;;;;6.83;4.72;;;;;;;6.42;75.93;100447.50;1675761;85;21572;-80
2022/09/06 04:28:17;;;;;;;8.40;4.47;;;;;;;6.44;76.18;100445.74;1675059;85;21144;-80
2022/09/06 04:30:58;;;;;;;11.95;4.58;;;;;;;6.48;76.44;100447.49;1675819;85;21520;-81
2022/09/06 04:33:25;;;;;;;8.10;4.28;;;;;;;6.53;76.50;100444.42;1649572;85;21159;-82
2022/09/06 04:35:53;;;;;;;9.40;3.95;;;;;;;6.60;76.42;100451.36;1675527;85;21044;-81
2022/09/06 04:38:19;;;;;;;7.20;3.85;;;;;;;6.69;76.33;100446.53;1675650;85;21210;-81
2022/09/06 04:40:48;;;;;;;9.48;3.70;;;;;;;6.78;76.07;100444.34;1675748;85;23171;-81
2022/09/06 04:43:14;;;;;;;7.70;4.35;;;;;;;6.88;76.22;100442.12;1675566;85;21100;-82
2022/09/06 04:45:41;;;;;;;11.10;5.42;;;;;;;6.96;75.67;100448.19;1675628;85;21080;-81
2022/09/06 04:48:08;;;;;;;9.85;4.90;;;;;;;7.05;74.94;100442.89;1675794;85;21140;-81
2022/09/06 04:50:35;;;;;;;6.75;4.70;;;;;;;7.16;74.39;100438.03;1675797;85;21140;-80
2022/09/06 04:53:05;;;;;;;8.68;5.53;;;;;;;7.27;73.91;100442.77;1675924;85;21235;-80
2022/09/06 04:55:33;;;;;;;8.60;5.12;;;;;;;7.38;73.36;100442.27;1675487;85;21390;-81
2022/09/06 04:58:00;;;;;;;15.38;5.20;;;;;;;7.48;72.95;100443.50;1675751;85;21033;-81
2022/09/06 05:00:27;;;;;;;9.23;5.53;;;;;;;7.59;72.68;100446.47;1675865;85;21124;-81
2022/09/06 05:02:54;;;;;;;9.08;5.55;;;;;;;7.72;72.17;100446.40;1675581;85;21414;-81
2022/09/06 05:05:21;;;;;;;11.28;5.65;;;;;;;7.82;71.72;100441.51;1675649;85;21228;-81
2022/09/06 05:07:53;;;;;;;7.92;5.47;;;;;;;7.97;71.20;100447.92;1677878;85;21081;-81
2022/09/06 05:10:21;;;;;;;10.28;4.97;;;;;;;8.11;70.65;100447.78;1681155;85;21092;-81
2022/09/06 05:12:50;;;;;;;10.08;5.60;;;;;;;8.24;70.12;100441.09;1680888;85;21717;-82
2022/09/06 05:15:17;;;;;;;10.35;4.20;;;;;;;8.36;69.73;100446.23;1680352;85;21120;-81
2022/09/06 05:17:44;;;;;;;7.00;4.40;;;;;;;8.47;68.91;100446.14;1680968;85;21136;-81
2022/09/06 05:20:11;;;;;;;12.58;4.25;;;;;;;8.53;68.54;100444.31;1680687;85;21191;-81
2022/09/06 05:22:38;;;;;;;8.93;3.90;;;;;;;8.62;67.95;100452.97;1680781;85;21084;-81
2022/09/06 05:25:07;;;;;;;8.83;4.95;;;;;;;8.70;67.60;100447.20;1680696;85;21562;-81
2022/09/06 05:27:34;;;;;;;9.63;5.33;;;;;;;8.77;67.01;100438.35;1680343;85;21148;-82
2022/09/06 05:30:02;;;;;;;9.80;5.20;;;;;;;8.85;66.47;100442.20;1680857;85;21160;-81
2022/09/06 05:32:29;;;;;;;7.45;4.75;;;;;;;8.92;66.26;100440.78;1681180;85;21571;-82
2022/09/06 05:34:56;;;;;;;6.85;4.67;;;;;;;9.00;65.71;100434.58;1680726;85;21571;-81
2022/09/06 05:37:23;;;;;;;9.78;5.20;;;;;;;9.09;65.26;100439.69;1681199;85;21108;-82
2022/09/06 05:39:49;;;;;;;9.20;4.47;;;;;;;9.17;64.90;100431.27;1681066;85;22141;-82
2022/09/06 05:42:16;;;;;;;6.35;4.10;;;;;;;9.25;64.38;100438.59;1680601;85;21341;-80
2022/09/06 05:44:42;;;;;;;5.12;3.75;;;;;;;9.33;63.52;100431.04;1680877;85;21056;-81
2022/09/06 05:47:09;;;;;;;7.72;4.08;;;;;;;9.42;63.19;100435.72;1680950;85;21133;-81
2022/09/06 05:49:35;;;;;;;4.83;3.58;;;;;;;9.53;62.77;100434.68;1681027;85;21025;-81
2022/09/06 05:52:02;;;;;;;8.55;3.40;;;;;;;9.64;62.04;100438.88;1680828;85;21080;-82
2022/09/06 05:54:30;;;;;;;8.43;4.35;;;;;;;9.74;60.68;100437.42;1680783;85;21150;-81
2022/09/06 05:56:56;;;;;;;11.30;3.72;;;;;;;9.83;60.28;100437.26;1680948;85;21120;-81
2022/09/06 05:59:23;;;;;;;9.00;4.03;;;;;;;9.91;60.08;100436.69;1680821;85;21578;-82
2022/09/06 06:01:51;;;;;;;8.98;3.85;;;;;;;9.97;59.57;100437.91;1680998;85;21092;-81
2022/09/06 06:04:18;;;;;;;6.28;3.90;;;;;;;10.02;59.38;100443.95;1681016;85;21075;-81
2022/09/06 06:06:45;;;;;;;14.00;3.20;;;;;;;10.08;58.79;100442.10;1680775;85;21855;-81
2022/09/06 06:09:13;;;;;;;6.95;3.37;;;;;;;10.13;58.33;100446.38;1670883;85;21068;-81
2022/09/06 06:11:39;;;;;;;13.50;3.52;;;;;;;10.18;57.91;100440.58;1669868;85;21645;-79
2022/09/06 06:14:07;;;;;;;5.47;3.25;;;;;;;10.26;57.25;100447.03;1669797;85;21135;-82
2022/09/06 06:16:34;;;;;;;6.22;3.30;;;;;;;10.31;56.91;100443.86;1669648;85;21127;-82
2022/09/06 06:19:01;;;;;;;4.47;3.37;;;;;;;10.37;56.81;100443.80;1669919;85;21902;-81
2022/09/06 06:21:29;;;;;;;6.58;3.08;;;;;;;10.46;56.48;100447.15;1670242;85;21476;-82
2022/09/06 06:24:00;;;;;;;12.58;3.17;;;;;;;10.54;56.28;100448.73;1669856;85;21096;-81
2022/09/06 06:26:28;;;;;;;10.58;3.25;;;;;;;10.64;55.91;100440.21;1669056;85;21099;-81
2022/09/06 06:28:57;;;;;;;8.30;3.02;;;;;;;10.74;55.74;100448.34;1669662;85;21028;-80
2022/09/06 06:31:23;;;;;;;6.58;3.05;;;;;;;10.82;55.57;100445.52;1670269;85;21142;-81
2022/09/06 06:33:50;;;;;;;5.90;2.72;;;;;;;10.93;55.02;100444.00;1669756;85;21033;-81
2022/09/06 06:36:20;;;;;;;4.50;2.10;;;;;;;10.99;54.10;100445.62;1669707;85;21103;-81
2022/09/06 06:38:48;;;;;;;7.53;3.10;;;;;;;11.07;54.08;100448.50;1669942;84;21115;-81
2022/09/06 06:41:16;;;;;;;10.88;2.80;;;;;;;11.15;53.65;100450.52;1669892;85;21104;-81
2022/09/06 06:43:44;;;;;;;10.13;3.02;;;;;;;11.24;52.99;100449.45;1669980;85;21280;-81
2022/09/06 06:46:13;;;;;;;4.92;2.08;;;;;;;11.31;52.63;100443.59;1669729;85;21052;-83
2022/09/06 06:48:42;;;;;;;4.67;1.70;;;;;;;11.39;52.52;100442.97;1669898;85;21100;-80
2022/09/06 06:51:16;;;;;;;5.47;1.90;;;;;;;11.48;51.88;100447.16;1669753;85;21060;-82
2022/09/06 06:53:46;;;;;;;7.05;2.12;;;;;;;11.53;51.43;100443.53;1670090;85;21142;-81
2022/09/06 06:56:30;;;;;;;4.72;2.00;;;;;;;11.60;50.41;100450.84;1670224;85;21817;-81
2022/09/06 06:58:59;;;;;;;2.55;1.60;;;;;;;11.61;50.40;100446.42;1673532;85;20977;-79
2022/09/06 07:01:28;;;;;;;3.37;1.90;;;;;;;11.67;50.43;100448.92;1674199;85;32571;-78
2022/09/06 07:03:54;;;;;;;6.62;2.02;;;;;;;11.73;50.29;100444.80;1674280;85;21604;-79
2022/09/06 07:06:21;;;;;;;4.87;2.40;;;;;;;11.79;50.74;100444.66;1674474;85;20997;-79
2022/09/06 07:08:48;;;;;;;3.90;1.87;;;;;;;11.86;50.04;100446.23;1673982;85;21157;-79
2022/09/06 07:11:16;;;;;;;5.83;2.27;;;;;;;11.94;49.76;100449.18;1674013;85;21015;-79
2022/09/06 07:13:42;;;;;;;2.75;1.80;;;;;;;11.99;49.44;100453.88;1674043;85;21028;-79
2022/09/06 07:16:21;;;;;;;3.58;2.27;;;;;;;12.03;48.82;100447.61;1670535;85;21520;-80
2022/09/06 07:18:52;;;;;;;2.72;2.22;;;;;;;12.06;48.70;100446.22;1670025;85;21056;-81
2022/09/06 07:21:25;;;;;;;1.98;1.60;;;;;;;12.12;48.72;100446.07;1669924;85;21168;-82
2022/09/06 07:23:53;;;;;;;5.28;2.77;;;;;;;12.21;48.00;100445.81;1670049;84;21073;-81
2022/09/06 07:26:27;;;;;;;5.10;2.72;;;;;;;12.28;46.59;100452.26;1669642;85;21056;-81
2022/09/06 07:28:56;;;;;;;;;;;;;;;12.31;46.28;100450.40;1672467;85;21021;-81
2022/09/06 07:31:23;;;;;;;7.78;2.45;;;;;;;12.32;45.85;100445.98;1669040;85;20225;-79
2022/09/06 07:33:50;;;;;;;4.15;2.45;;;;;;;12.31;46.79;100452.18;1669837;85;21111;-81
2022/09/06 07:36:16;;;;;;;4.40;2.60;;;;;;;12.40;46.76;100449.28;1669695;85;21124;-81
2022/09/06 07:38:49;;;;;;;2.70;1.90;;;;;;;12.46;46.18;100443.84;1669820;85;21012;-80
2022/09/06 07:41:16;;;;;;;5.00;2.37;;;;;;;12.49;46.00;100442.44;1669740;85;21567;-81
2022/09/06 07:43:43;;;;;;;6.00;2.17;;;;;;;12.54;45.77;100444.50;1669670;85;21583;-82
2022/09/06 07:46:15;;;;;;;3.42;1.72;;;;;;;12.58;46.13;100445.27;1669681;85;21159;-81
2022/09/06 07:48:43;;;;;;;2.02;1.82;;;;;;;12.64;45.82;100442.01;1669587;85;21021;-81
2022/09/06 07:51:15;;;;;;;4.03;1.55;;;;;;;12.75;45.41;100440.83;1669905;84;20982;-81
2022/09/06 07:53:43;;;;;;;2.77;1.20;;;;;;;12.87;45.28;100437.83;1669738;85;21084;-82
2022/09/06 07:56:11;;;;;;;1.25;1.17;;;;;;;13.01;44.16;100446.22;1669688;85;21075;-83
2022/09/06 07:58:38;;;;;;;3.95;1.80;;;;;;;13.12;44.12;100438.42;1669813;85;21113;-81
2022/09/06 08:01:36;;;;;;;1.92;1.60;;;;;;;13.23;44.01;100432.80;1669558;85;21087;-82
2022/09/06 08:04:12;;;;;;;3.17;1.67;;;;;;;13.27;42.81;100437.95;1669635;85;21337;-81
2022/09/06 08:06:48;;;;;;;1.50;1.40;;;;;;;13.32;42.76;100438.70;1670006;85;21139;-82
2022/09/06 08:09:15;;;;;;;4.85;1.70;;;;;;;13.37;43.27;100436.78;1669594;85;21032;-81
2022/09/06 08:11:41;;;;;;;4.10;1.67;;;;;;;13.48;42.63;100436.89;1669872;84;21163;-81
2022/09/06 08:14:09;;;;;;;3.10;1.87;;;;;;;13.53;42.12;100434.96;1669665;85;21123;-82
2022/09/06 08:16:36;;;;;;;5.97;2.60;;;;;;;13.56;42.79;100440.16;1669767;85;21025;-82
2022/09/06 08:19:07;;;;;;;5.78;2.40;;;;;;;13.60;43.22;100440.48;1669875;84;21489;-81
2022/09/06 08:21:33;;;;;;;2.08;1.60;;;;;;;13.71;43.10;100440.98;1669893;85;21033;-81
2022/09/06 08:24:03;;;;;;;1.80;1.70;;;;;;;13.81;41.90;100432.76;1669932;84;21120;-82
2022/09/06 08:26:30;;;;;;;5.28;1.32;;;;;;;13.89;41.67;100429.40;1669633;85;21562;-81
2022/09/06 08:29:02;;;;;;;3.27;1.05;;;;;;;13.91;40.80;100428.88;1669832;85;20997;-82
2022/09/06 08:31:30;;;;;;;7.03;1.00;;;;;;;13.86;39.69;100428.17;1669705;85;21143;-81
2022/09/06 08:33:57;;;;;;;5.33;1.07;;;;;;;13.77;39.79;100428.47;1669710;85;21060;-82
2022/09/06 08:36:28;;;;;;;6.22;3.52;;;;;;;13.78;40.39;100427.56;1669876;85;21161;-80
2022/09/06 08:38:52;;;;;;;30.72;11.80;;;;;;;13.87;40.87;100427.23;1669307;85;21061;-81
2022/09/06 08:41:29;;;;;;;6.90;3.55;;;;;;;13.95;40.40;100415.94;1669719;85;21076;-82
2022/09/06 08:44:09;;;;;;;2.50;1.80;;;;;;;14.08;40.24;100412.42;1669765;85;21167;-83
2022/09/06 08:46:43;;;;;;;2.20;1.55;;;;;;;14.22;40.17;100410.17;1669933;85;21005;-83
2022/09/06 08:49:09;;;;;;;2.85;1.60;;;;;;;14.34;40.66;100408.88;1669852;85;21253;-81
2022/09/06 08:52:12;;;;;;;2.10;1.90;;;;;;;14.45;39.80;100403.17;1669972;85;21128;-82
2022/09/06 08:55:23;;;;;;;3.95;1.80;;;;;;;14.49;39.48;100395.07;1662093;85;21115;-82
2022/09/06 08:58:00;;;;;;;3.98;1.60;;;;;;;14.50;39.78;100399.43;1670308;85;21052;-82
2022/09/06 09:00:27;;;;;;;2.70;1.95;;;;;;;14.60;39.64;100397.34;1669863;85;21004;-82
2022/09/06 09:03:04;;;;;;;1.65;1.55;;;;;;;14.69;39.25;100398.78;1669824;85;21866;-81
2022/09/06 09:05:34;;;;;;;1.82;1.67;;;;;;;14.75;39.61;100386.64;1669929;85;21626;-82
2022/09/06 09:08:16;;;;;;;1.45;1.35;;;;;;;14.91;39.60;100382.07;1670148;85;21159;-82
2022/09/06 09:11:09;;;;;;;1.90;1.42;;;;;;;15.05;39.20;100387.71;1668367;85;21024;-82
2022/09/06 09:13:50;;;;;;;1.32;1.22;;;;;;;15.12;38.10;100383.89;1701401;84;21140;-81
2022/09/06 09:16:17;;;;;;;2.10;1.50;;;;;;;14.96;36.19;100377.45;1715382;83;21125;-82
2022/09/06 09:18:46;;;;;;;7.05;1.77;;;;;;;14.72;37.04;100374.83;1691506;83;21110;-83
2022/09/06 09:21:15;;;;;;;4.35;1.67;;;;;;;14.69;37.74;100377.59;1668504;83;21105;-82
2022/09/06 09:23:44;;;;;;;3.17;1.40;;;;;;;14.72;38.58;100370.85;1715868;83;21062;-82
2022/09/06 09:26:13;;;;;;;3.75;1.27;;;;;;;14.85;38.75;100365.48;1715002;83;21066;-82
2022/09/06 09:29:02;;;;;;;2.27;1.30;;;;;;;14.90;37.63;100365.79;1715820;83;21846;-83
2022/09/06 09:31:48;;;;;;;5.28;1.32;;;;;;;14.89;37.59;100372.00;1715890;83;21555;-82
2022/09/06 09:34:32;;;;;;;3.20;1.20;;;;;;;14.92;37.73;100363.47;1715624;83;21082;-82
2022/09/06 09:37:20;;;;;;;1.65;1.55;;;;;;;14.98;38.21;100361.05;1715668;83;21106;-81
2022/09/06 09:39:48;;;;;;;2.45;1.40;;;;;;;15.02;37.80;100369.27;1691382;83;21054;-81
2022/09/06 09:42:33;;;;;;;3.95;1.70;;;;;;;14.90;37.81;100364.47;1715684;83;21180;-82
2022/09/06 09:44:59;;;;;;;1.95;1.75;;;;;;;14.81;37.69;100373.61;1715986;83;21074;-82
2022/09/06 09:47:31;;;;;;;3.42;2.25;;;;;;;14.68;38.42;100372.77;1715758;83;21027;-82
2022/09/06 09:49:57;;;;;;;7.30;2.47;;;;;;;14.67;38.83;100374.14;1715915;83;21031;-81
2022/09/06 09:52:28;;;;;;;9.50;5.40;;;;;;;14.63;38.82;100377.84;1715801;83;21071;-82
2022/09/06 09:55:00;;;;;;;13.25;5.20;;;;;;;14.58;39.68;100379.77;1715047;83;21987;-81
2022/09/06 09:57:30;;;;;;;15.65;6.35;;;;;;;14.45;40.19;100372.26;1716065;83;21019;-81
2022/09/06 09:59:59;;;;;;;9.33;4.95;;;;;;;14.39;40.23;100382.20;1715926;83;21521;-81
2022/09/06 10:02:39;;;;;;;4.80;3.40;;;;;;;14.39;40.69;100382.20;1715862;83;21071;-81
2022/09/06 10:05:14;;;;;;;3.95;2.90;;;;;;;14.45;39.55;100383.32;1715798;83;21101;-81
2022/09/06 10:07:50;;;;;;;4.30;2.98;;;;;;;14.47;39.59;100370.44;1715683;83;21847;-81
2022/09/06 10:10:25;;;;;;;6.83;3.20;;;;;;;14.56;39.62;100380.26;1715145;81;21583;-81
2022/09/06 10:13:28;;;;;;;6.53;5.00;;;;;;;14.64;39.27;100383.52;1697719;84;21121;-79
2022/09/06 10:15:57;;;;;;;12.85;8.25;;;;;;;14.70;38.85;100381.98;1715517;83;21950;-82
2022/09/06 10:18:41;;;;;;;15.05;8.05;;;;;;;14.61;38.70;100375.72;1698043;84;21106;-81
2022/09/06 10:21:14;;;;;;;15.48;8.13;;;;;;;14.46;39.10;100378.44;1714719;83;21167;-81
2022/09/06 10:24:10;;;;;;;22.82;10.75;;;;;;;14.42;39.60;100380.31;1715103;83;21105;-82
2022/09/06 10:26:55;;;;;;;;;;;;;;;14.43;39.60;100377.22;1674604;84;21123;-82
2022/09/06 10:29:33;;;;;;;20.27;10.68;;;;;;;14.39;40.14;100372.50;1716235;83;20495;-80
2022/09/06 10:32:47;;;;;;;22.30;10.38;;;;;;;14.39;40.17;100371.62;1697923;84;21116;-82
2022/09/06 10:35:23;;;;;;;14.43;9.10;;;;;;;14.44;40.13;100366.58;1698039;84;21242;-82
2022/09/06 10:38:17;;;;;;;19.23;9.58;;;;;;;14.54;39.88;100367.55;1715571;83;21063;-81
2022/09/06 10:41:23;;;;;;;18.07;9.88;;;;;;;14.59;39.73;100364.30;1697962;84;21038;-82
2022/09/06 10:43:58;;;;;;;20.57;10.90;;;;;;;14.61;39.20;100370.42;1715283;83;21689;-82
2022/09/06 10:46:25;;;;;;;22.25;12.23;;;;;;;14.58;39.46;100367.84;1697655;84;21693;-82
2022/09/06 10:48:52;;;;;;;32.75;14.63;;;;;;;14.61;39.74;100369.09;1698071;84;21894;-81
2022/09/06 10:51:33;;;;;;;28.05;13.50;;;;;;;14.62;39.47;100369.01;1697791;84;21119;-82
2022/09/06 10:54:07;;;;;;;25.62;15.58;;;;;;;14.66;39.75;100365.81;1697949;84;21585;-82
2022/09/06 10:57:13;;;;;;;29.40;15.05;;;;;;;14.80;39.47;100370.10;1697470;84;21118;-82
2022/09/06 10:59:53;;;;;;;27.52;14.87;;;;;;;14.94;39.71;100363.41;1694666;84;21594;-82
2022/09/06 11:02:47;;;;;;;27.37;17.23;;;;;;;15.11;39.93;100364.92;1669782;84;21122;-82
2022/09/06 11:05:27;;;;;;;40.38;22.30;;;;;;;15.29;39.42;100363.80;1698090;84;21127;-82
2022/09/06 11:08:03;;;;;;;44.15;25.00;;;;;;;15.37;38.76;100363.88;1697845;84;21103;-83
2022/09/06 11:10:36;;;;;;;50.20;26.50;;;;;;;15.40;38.78;100368.20;1694181;83;21127;-83
2022/09/06 11:13:15;;;;;;;57.10;28.67;;;;;;;15.42;38.11;100363.70;1693118;84;21612;-82
2022/09/06 11:15:48;;;;;;;55.43;30.08;;;;;;;15.34;38.04;100361.82;1693058;83;21162;-83
2022/09/06 11:18:43;;;;;;;52.23;28.52;;;;;;;15.30;38.31;100364.17;1690304;84;21147;-84
2022/09/06 11:21:36;;;;;;;58.23;29.18;;;;;;;15.23;37.91;100365.77;1693196;84;21674;-82
2022/09/06 11:24:13;;;;;;;58.80;28.67;;;;;;;15.05;37.88;100362.53;1693085;84;21077;-81
2022/09/06 11:26:46;;;;;;;62.38;32.83;;;;;;;14.94;38.44;100358.96;1693056;84;21839;-83
2022/09/06 11:29:23;;;;;;;76.77;44.45;;;;;;;14.95;39.09;100357.20;1693285;84;22066;-82
2022/09/06 11:31:56;;;;;;;98.37;49.98;;;;;;;14.99;38.92;100364.09;1693029;84;21016;-82
2022/09/06 11:34:32;;;;;;;112.12;55.48;;;;;;;14.91;38.79;100357.78;1693025;84;21143;-82
2022/09/06 11:37:06;;;;;;;84.85;42.65;;;;;;;14.82;39.01;100356.33;1693441;84;21151;-83
2022/09/06 11:39:38;;;;;;;77.25;41.88;;;;;;;14.73;38.82;100360.67;1693393;84;22242;-82
2022/09/06 11:42:08;;;;;;;89.50;46.33;;;;;;;14.61;38.88;100365.13;1693316;84;21540;-82
2022/09/06 11:45:07;;;;;;;109.42;56.92;;;;;;;14.49;39.00;100368.59;1693143;84;21618;-82
2022/09/06 11:47:42;;;;;;;113.85;57.48;;;;;;;14.41;39.38;100364.51;1693402;84;21545;-82
2022/09/06 11:50:23;;;;;;;120.33;63.83;;;;;;;14.30;39.83;100364.88;1693048;83;21123;-83